sensor_id;sensor_type;location;lat;lon;timestamp;P1;durP1;ratioP1;P2;durP2;ratioP2
72647;SDS011;60693;50.002;8.644;2023-02-18T00:01:18;9.07;;;3.17;;
72647;SDS011;60693;50.002;8.644;2023-02-18T00:03:45;8.85;;;3.22;;
72647;SDS011;60693;50.002;8.644;2023-02-18T00:06:16;8.80;;;3.00;;
72647;SDS011;60693;50.002;8.644;2023-02-18T00:08:42;13.00;;;3.20;;
72647;SDS011;60693;50.002;8.644;2023-02-18T00:11:09;8.27;;;2.90;;
72647;SDS011;60693;50.002;8.644;2023-02-18T00:13:35;8.85;;;3.10;;
72647;SDS011;60693;50.002;8.644;2023-02-18T00:16:06;8.93;;;3.33;;
72647;SDS011;60693;50.002;8.644;2023-02-18T00:18:33;8.13;;;2.47;;
72647;SDS011;60693;50.002;8.644;2023-02-18T00:20:59;8.13;;;2.90;;
72647;SDS011;60693;50.002;8.644;2023-02-18T00:23:24;7.80;;;2.40;;
72647;SDS011;60693;50.002;8.644;2023-02-18T00:25:57;9.20;;;2.93;;
72647;SDS011;60693;50.002;8.644;2023-02-18T00:28:24;7.78;;;2.75;;
72647;SDS011;60693;50.002;8.644;2023-02-18T00:30:50;7.70;;;2.58;;
72647;SDS011;60693;50.002;8.644;2023-02-18T00:33:15;8.93;;;2.43;;
72647;SDS011;60693;50.002;8.644;2023-02-18T00:35:41;8.27;;;2.70;;
72647;SDS011;60693;50.002;8.644;2023-02-18T00:38:06;7.80;;;2.60;;
72647;SDS011;60693;50.002;8.644;2023-02-18T00:40:35;9.37;;;2.60;;
72647;SDS011;60693;50.002;8.644;2023-02-18T00:43:03;8.25;;;2.67;;
72647;SDS011;60693;50.002;8.644;2023-02-18T00:45:29;8.38;;;2.88;;
72647;SDS011;60693;50.002;8.644;2023-02-18T00:47:55;8.97;;;2.67;;
72647;SDS011;60693;50.002;8.644;2023-02-18T00:50:20;8.98;;;3.63;;
72647;SDS011;60693;50.002;8.644;2023-02-18T00:52:46;8.53;;;2.73;;
72647;SDS011;60693;50.002;8.644;2023-02-18T00:55:12;8.18;;;2.85;;
72647;SDS011;60693;50.002;8.644;2023-02-18T00:57:37;8.13;;;2.70;;
72647;SDS011;60693;50.002;8.644;2023-02-18T01:00:03;7.53;;;2.30;;
72647;SDS011;60693;50.002;8.644;2023-02-18T01:02:30;7.85;;;2.30;;
72647;SDS011;60693;50.002;8.644;2023-02-18T01:04:56;6.57;;;1.80;;
72647;SDS011;60693;50.002;8.644;2023-02-18T01:07:21;8.63;;;2.30;;
72647;SDS011;60693;50.002;8.644;2023-02-18T01:09:47;7.25;;;2.05;;
72647;SDS011;60693;50.002;8.644;2023-02-18T01:12:13;7.07;;;2.20;;
72647;SDS011;60693;50.002;8.644;2023-02-18T01:14:38;7.20;;;1.80;;
72647;SDS011;60693;50.002;8.644;2023-02-18T01:17:04;7.40;;;2.10;;
72647;SDS011;60693;50.002;8.644;2023-02-18T01:19:30;7.37;;;2.10;;
72647;SDS011;60693;50.002;8.644;2023-02-18T01:21:55;7.43;;;1.90;;
72647;SDS011;60693;50.002;8.644;2023-02-18T01:24:21;6.60;;;1.95;;
72647;SDS011;60693;50.002;8.644;2023-02-18T01:26:46;7.23;;;1.90;;
72647;SDS011;60693;50.002;8.644;2023-02-18T01:29:12;7.47;;;1.83;;
72647;SDS011;60693;50.002;8.644;2023-02-18T01:31:37;7.07;;;1.97;;
72647;SDS011;60693;50.002;8.644;2023-02-18T01:34:03;6.88;;;1.70;;
72647;SDS011;60693;50.002;8.644;2023-02-18T01:36:29;6.20;;;1.60;;
72647;SDS011;60693;50.002;8.644;2023-02-18T01:38:54;7.37;;;1.90;;
72647;SDS011;60693;50.002;8.644;2023-02-18T01:41:20;7.03;;;1.67;;
72647;SDS011;60693;50.002;8.644;2023-02-18T01:43:46;6.40;;;1.25;;
72647;SDS011;60693;50.002;8.644;2023-02-18T01:51:24;6.00;;;1.45;;
72647;SDS011;60693;50.002;8.644;2023-02-18T01:53:54;6.35;;;1.42;;
72647;SDS011;60693;50.002;8.644;2023-02-18T01:56:26;6.83;;;1.20;;
72647;SDS011;60693;50.002;8.644;2023-02-18T01:58:59;6.25;;;1.08;;
72647;SDS011;60693;50.002;8.644;2023-02-18T02:01:32;5.10;;;0.80;;
72647;SDS011;60693;50.002;8.644;2023-02-18T02:03:58;6.57;;;1.08;;
72647;SDS011;60693;50.002;8.644;2023-02-18T02:06:23;5.07;;;0.70;;
72647;SDS011;60693;50.002;8.644;2023-02-18T02:08:50;6.25;;;1.00;;
72647;SDS011;60693;50.002;8.644;2023-02-18T02:14:20;6.30;;;0.90;;
72647;SDS011;60693;50.002;8.644;2023-02-18T02:16:56;3.38;;;0.70;;
72647;SDS011;60693;50.002;8.644;2023-02-18T02:33:11;3.67;;;0.73;;
72647;SDS011;60693;50.002;8.644;2023-02-18T02:36:02;4.47;;;1.00;;
72647;SDS011;60693;50.002;8.644;2023-02-18T02:38:39;3.85;;;0.90;;
72647;SDS011;60693;50.002;8.644;2023-02-18T02:46:38;3.63;;;0.70;;
72647;SDS011;60693;50.002;8.644;2023-02-18T02:51:58;4.68;;;0.77;;
72647;SDS011;60693;50.002;8.644;2023-02-18T02:54:26;4.50;;;0.80;;
72647;SDS011;60693;50.002;8.644;2023-02-18T02:59:40;3.72;;;0.60;;
72647;SDS011;60693;50.002;8.644;2023-02-18T03:16:16;4.60;;;0.93;;
72647;SDS011;60693;50.002;8.644;2023-02-18T03:22:02;5.63;;;1.00;;
72647;SDS011;60693;50.002;8.644;2023-02-18T03:24:48;4.68;;;0.73;;
72647;SDS011;60693;50.002;8.644;2023-02-18T03:27:16;4.65;;;1.00;;
72647;SDS011;60693;50.002;8.644;2023-02-18T03:29:47;5.40;;;1.10;;
72647;SDS011;60693;50.002;8.644;2023-02-18T03:32:15;4.65;;;1.08;;
72647;SDS011;60693;50.002;8.644;2023-02-18T03:34:44;4.63;;;0.90;;
72647;SDS011;60693;50.002;8.644;2023-02-18T03:37:13;4.82;;;0.90;;
72647;SDS011;60693;50.002;8.644;2023-02-18T03:39:40;6.47;;;1.40;;
72647;SDS011;60693;50.002;8.644;2023-02-18T03:42:08;6.45;;;1.40;;
72647;SDS011;60693;50.002;8.644;2023-02-18T03:44:34;5.77;;;1.10;;
72647;SDS011;60693;50.002;8.644;2023-02-18T03:46:59;5.63;;;1.27;;
72647;SDS011;60693;50.002;8.644;2023-02-18T03:49:25;6.38;;;1.05;;
72647;SDS011;60693;50.002;8.644;2023-02-18T03:51:51;6.50;;;1.30;;
72647;SDS011;60693;50.002;8.644;2023-02-18T03:54:17;5.70;;;1.40;;
72647;SDS011;60693;50.002;8.644;2023-02-18T03:56:42;8.13;;;1.40;;
72647;SDS011;60693;50.002;8.644;2023-02-18T03:59:08;4.82;;;1.02;;
72647;SDS011;60693;50.002;8.644;2023-02-18T04:01:34;5.40;;;1.20;;
72647;SDS011;60693;50.002;8.644;2023-02-18T04:04:00;6.33;;;1.23;;
72647;SDS011;60693;50.002;8.644;2023-02-18T04:06:27;6.10;;;1.20;;
72647;SDS011;60693;50.002;8.644;2023-02-18T04:08:53;5.65;;;1.27;;
72647;SDS011;60693;50.002;8.644;2023-02-18T04:11:18;7.43;;;1.40;;
72647;SDS011;60693;50.002;8.644;2023-02-18T04:13:44;6.95;;;1.38;;
72647;SDS011;60693;50.002;8.644;2023-02-18T04:16:09;9.60;;;1.50;;
72647;SDS011;60693;50.002;8.644;2023-02-18T04:18:35;5.40;;;1.00;;
72647;SDS011;60693;50.002;8.644;2023-02-18T04:21:01;4.97;;;0.88;;
72647;SDS011;60693;50.002;8.644;2023-02-18T04:23:27;6.07;;;1.33;;
72647;SDS011;60693;50.002;8.644;2023-02-18T04:25:52;5.38;;;1.02;;
72647;SDS011;60693;50.002;8.644;2023-02-18T04:28:18;6.07;;;1.30;;
72647;SDS011;60693;50.002;8.644;2023-02-18T04:30:43;6.55;;;1.27;;
72647;SDS011;60693;50.002;8.644;2023-02-18T04:33:10;6.18;;;1.45;;
72647;SDS011;60693;50.002;8.644;2023-02-18T04:35:36;7.30;;;1.13;;
72647;SDS011;60693;50.002;8.644;2023-02-18T04:38:02;6.60;;;1.30;;
72647;SDS011;60693;50.002;8.644;2023-02-18T04:40:28;6.97;;;1.45;;
72647;SDS011;60693;50.002;8.644;2023-02-18T04:42:57;7.85;;;1.65;;
72647;SDS011;60693;50.002;8.644;2023-02-18T04:45:23;5.93;;;1.45;;
72647;SDS011;60693;50.002;8.644;2023-02-18T04:47:49;8.02;;;1.70;;
72647;SDS011;60693;50.002;8.644;2023-02-18T04:50:14;6.82;;;1.55;;
72647;SDS011;60693;50.002;8.644;2023-02-18T04:52:40;6.80;;;1.70;;
72647;SDS011;60693;50.002;8.644;2023-02-18T04:55:06;7.68;;;1.95;;
72647;SDS011;60693;50.002;8.644;2023-02-18T04:57:32;7.50;;;2.00;;
72647;SDS011;60693;50.002;8.644;2023-02-18T04:59:57;6.82;;;1.65;;
72647;SDS011;60693;50.002;8.644;2023-02-18T05:02:23;6.20;;;1.50;;
72647;SDS011;60693;50.002;8.644;2023-02-18T05:04:49;6.13;;;1.45;;
72647;SDS011;60693;50.002;8.644;2023-02-18T05:07:14;8.03;;;1.80;;
72647;SDS011;60693;50.002;8.644;2023-02-18T05:09:40;6.53;;;1.60;;
72647;SDS011;60693;50.002;8.644;2023-02-18T05:12:06;6.38;;;1.60;;
72647;SDS011;60693;50.002;8.644;2023-02-18T05:14:31;6.43;;;1.60;;
72647;SDS011;60693;50.002;8.644;2023-02-18T05:16:57;6.03;;;1.40;;
72647;SDS011;60693;50.002;8.644;2023-02-18T05:19:23;5.23;;;1.27;;
72647;SDS011;60693;50.002;8.644;2023-02-18T05:21:48;8.25;;;1.60;;
72647;SDS011;60693;50.002;8.644;2023-02-18T05:24:14;6.97;;;1.80;;
72647;SDS011;60693;50.002;8.644;2023-02-18T05:26:39;7.78;;;1.75;;
72647;SDS011;60693;50.002;8.644;2023-02-18T05:29:05;6.83;;;1.70;;
72647;SDS011;60693;50.002;8.644;2023-02-18T05:31:31;6.40;;;1.60;;
72647;SDS011;60693;50.002;8.644;2023-02-18T05:33:56;6.53;;;1.55;;
72647;SDS011;60693;50.002;8.644;2023-02-18T05:36:22;7.23;;;1.40;;
72647;SDS011;60693;50.002;8.644;2023-02-18T05:38:47;5.90;;;1.40;;
72647;SDS011;60693;50.002;8.644;2023-02-18T05:41:13;5.27;;;1.30;;
72647;SDS011;60693;50.002;8.644;2023-02-18T05:43:39;6.57;;;1.63;;
72647;SDS011;60693;50.002;8.644;2023-02-18T05:46:23;6.30;;;1.48;;
72647;SDS011;60693;50.002;8.644;2023-02-18T05:48:48;6.18;;;1.50;;
72647;SDS011;60693;50.002;8.644;2023-02-18T05:51:14;5.53;;;1.27;;
72647;SDS011;60693;50.002;8.644;2023-02-18T05:53:39;5.43;;;1.20;;
72647;SDS011;60693;50.002;8.644;2023-02-18T05:56:05;5.38;;;1.30;;
72647;SDS011;60693;50.002;8.644;2023-02-18T05:58:31;5.73;;;1.23;;
72647;SDS011;60693;50.002;8.644;2023-02-18T06:00:56;5.88;;;1.45;;
72647;SDS011;60693;50.002;8.644;2023-02-18T06:03:22;5.77;;;1.70;;
72647;SDS011;60693;50.002;8.644;2023-02-18T06:05:48;6.50;;;1.70;;
72647;SDS011;60693;50.002;8.644;2023-02-18T06:08:14;6.50;;;1.85;;
72647;SDS011;60693;50.002;8.644;2023-02-18T06:10:40;5.55;;;1.40;;
72647;SDS011;60693;50.002;8.644;2023-02-18T06:13:06;9.07;;;2.00;;
72647;SDS011;60693;50.002;8.644;2023-02-18T06:15:31;6.82;;;1.60;;
72647;SDS011;60693;50.002;8.644;2023-02-18T06:17:57;6.60;;;1.90;;
72647;SDS011;60693;50.002;8.644;2023-02-18T06:20:23;7.82;;;2.00;;
72647;SDS011;60693;50.002;8.644;2023-02-18T06:22:48;7.43;;;1.90;;
72647;SDS011;60693;50.002;8.644;2023-02-18T06:25:14;5.27;;;1.33;;
72647;SDS011;60693;50.002;8.644;2023-02-18T06:27:39;6.15;;;1.88;;
72647;SDS011;60693;50.002;8.644;2023-02-18T06:30:05;7.27;;;2.00;;
72647;SDS011;60693;50.002;8.644;2023-02-18T06:32:31;6.75;;;2.03;;
72647;SDS011;60693;50.002;8.644;2023-02-18T06:34:57;6.93;;;2.05;;
72647;SDS011;60693;50.002;8.644;2023-02-18T06:37:22;6.57;;;2.10;;
72647;SDS011;60693;50.002;8.644;2023-02-18T06:39:48;7.43;;;2.10;;
72647;SDS011;60693;50.002;8.644;2023-02-18T06:42:13;7.93;;;2.13;;
72647;SDS011;60693;50.002;8.644;2023-02-18T06:44:39;6.97;;;2.10;;
72647;SDS011;60693;50.002;8.644;2023-02-18T06:47:05;8.03;;;1.90;;
72647;SDS011;60693;50.002;8.644;2023-02-18T06:49:31;8.68;;;2.17;;
72647;SDS011;60693;50.002;8.644;2023-02-18T06:51:57;8.13;;;2.22;;
72647;SDS011;60693;50.002;8.644;2023-02-18T06:54:23;5.53;;;1.50;;
72647;SDS011;60693;50.002;8.644;2023-02-18T06:56:49;6.28;;;1.65;;
72647;SDS011;60693;50.002;8.644;2023-02-18T06:59:15;7.65;;;1.73;;
72647;SDS011;60693;50.002;8.644;2023-02-18T07:01:41;6.73;;;1.83;;
72647;SDS011;60693;50.002;8.644;2023-02-18T07:04:06;7.70;;;1.70;;
72647;SDS011;60693;50.002;8.644;2023-02-18T07:06:32;7.15;;;1.92;;
72647;SDS011;60693;50.002;8.644;2023-02-18T07:08:58;6.20;;;1.60;;
72647;SDS011;60693;50.002;8.644;2023-02-18T07:11:23;6.88;;;1.70;;
72647;SDS011;60693;50.002;8.644;2023-02-18T07:13:49;7.50;;;2.17;;
72647;SDS011;60693;50.002;8.644;2023-02-18T07:16:14;7.88;;;2.20;;
72647;SDS011;60693;50.002;8.644;2023-02-18T07:18:40;6.30;;;1.98;;
72647;SDS011;60693;50.002;8.644;2023-02-18T07:21:06;7.27;;;1.87;;
72647;SDS011;60693;50.002;8.644;2023-02-18T07:23:31;6.13;;;1.92;;
72647;SDS011;60693;50.002;8.644;2023-02-18T07:26:07;9.40;;;2.00;;
72647;SDS011;60693;50.002;8.644;2023-02-18T07:28:37;6.40;;;1.77;;
72647;SDS011;60693;50.002;8.644;2023-02-18T07:31:02;7.10;;;1.70;;
72647;SDS011;60693;50.002;8.644;2023-02-18T07:33:28;6.10;;;1.60;;
72647;SDS011;60693;50.002;8.644;2023-02-18T07:35:54;6.38;;;1.80;;
72647;SDS011;60693;50.002;8.644;2023-02-18T07:38:22;6.05;;;1.73;;
72647;SDS011;60693;50.002;8.644;2023-02-18T07:40:48;6.55;;;1.80;;
72647;SDS011;60693;50.002;8.644;2023-02-18T07:43:14;6.95;;;1.98;;
72647;SDS011;60693;50.002;8.644;2023-02-18T07:45:39;8.97;;;2.10;;
72647;SDS011;60693;50.002;8.644;2023-02-18T07:48:05;6.75;;;2.00;;
72647;SDS011;60693;50.002;8.644;2023-02-18T07:50:30;7.37;;;2.17;;
72647;SDS011;60693;50.002;8.644;2023-02-18T07:53:02;6.55;;;1.80;;
72647;SDS011;60693;50.002;8.644;2023-02-18T07:55:28;6.63;;;1.70;;
72647;SDS011;60693;50.002;8.644;2023-02-18T07:58:12;7.22;;;2.33;;
72647;SDS011;60693;50.002;8.644;2023-02-18T08:00:37;7.38;;;1.70;;
72647;SDS011;60693;50.002;8.644;2023-02-18T08:03:03;5.57;;;1.40;;
72647;SDS011;60693;50.002;8.644;2023-02-18T08:05:29;7.35;;;2.00;;
72647;SDS011;60693;50.002;8.644;2023-02-18T08:07:55;6.20;;;1.50;;
72647;SDS011;60693;50.002;8.644;2023-02-18T08:10:21;6.63;;;1.50;;
72647;SDS011;60693;50.002;8.644;2023-02-18T08:12:46;7.27;;;1.70;;
72647;SDS011;60693;50.002;8.644;2023-02-18T08:15:12;6.20;;;1.80;;
72647;SDS011;60693;50.002;8.644;2023-02-18T08:17:38;7.35;;;1.60;;
72647;SDS011;60693;50.002;8.644;2023-02-18T08:20:04;6.80;;;1.80;;
72647;SDS011;60693;50.002;8.644;2023-02-18T08:22:30;6.30;;;1.58;;
72647;SDS011;60693;50.002;8.644;2023-02-18T08:24:55;7.33;;;1.70;;
72647;SDS011;60693;50.002;8.644;2023-02-18T08:27:21;6.63;;;1.80;;
72647;SDS011;60693;50.002;8.644;2023-02-18T08:29:47;7.27;;;1.93;;
72647;SDS011;60693;50.002;8.644;2023-02-18T08:32:13;7.28;;;2.40;;
72647;SDS011;60693;50.002;8.644;2023-02-18T08:34:38;7.27;;;1.80;;
72647;SDS011;60693;50.002;8.644;2023-02-18T08:37:04;6.88;;;1.80;;
72647;SDS011;60693;50.002;8.644;2023-02-18T08:39:33;7.17;;;2.27;;
72647;SDS011;60693;50.002;8.644;2023-02-18T08:42:00;8.82;;;2.20;;
72647;SDS011;60693;50.002;8.644;2023-02-18T08:44:25;7.63;;;1.90;;
72647;SDS011;60693;50.002;8.644;2023-02-18T08:46:51;8.63;;;2.22;;
72647;SDS011;60693;50.002;8.644;2023-02-18T08:49:17;7.67;;;2.17;;
72647;SDS011;60693;50.002;8.644;2023-02-18T08:51:45;7.38;;;2.45;;
72647;SDS011;60693;50.002;8.644;2023-02-18T08:54:11;6.90;;;2.03;;
72647;SDS011;60693;50.002;8.644;2023-02-18T08:56:37;7.33;;;2.30;;
72647;SDS011;60693;50.002;8.644;2023-02-18T08:59:04;6.43;;;1.98;;
72647;SDS011;60693;50.002;8.644;2023-02-18T09:01:30;7.82;;;2.22;;
72647;SDS011;60693;50.002;8.644;2023-02-18T09:03:55;16.73;;;7.57;;
72647;SDS011;60693;50.002;8.644;2023-02-18T09:06:21;7.88;;;1.90;;
72647;SDS011;60693;50.002;8.644;2023-02-18T09:08:47;8.00;;;2.37;;
72647;SDS011;60693;50.002;8.644;2023-02-18T09:11:13;8.32;;;2.50;;
72647;SDS011;60693;50.002;8.644;2023-02-18T09:13:39;8.20;;;2.37;;
72647;SDS011;60693;50.002;8.644;2023-02-18T09:16:06;7.40;;;1.90;;
72647;SDS011;60693;50.002;8.644;2023-02-18T09:18:33;8.60;;;1.90;;
72647;SDS011;60693;50.002;8.644;2023-02-18T09:21:00;7.60;;;2.40;;
72647;SDS011;60693;50.002;8.644;2023-02-18T09:23:27;6.60;;;1.63;;
72647;SDS011;60693;50.002;8.644;2023-02-18T09:25:53;8.20;;;2.07;;
72647;SDS011;60693;50.002;8.644;2023-02-18T09:28:19;7.18;;;1.77;;
72647;SDS011;60693;50.002;8.644;2023-02-18T09:30:45;6.13;;;1.40;;
72647;SDS011;60693;50.002;8.644;2023-02-18T09:33:10;6.20;;;1.50;;
72647;SDS011;60693;50.002;8.644;2023-02-18T09:35:43;4.95;;;1.00;;
72647;SDS011;60693;50.002;8.644;2023-02-18T09:38:10;6.55;;;1.30;;
72647;SDS011;60693;50.002;8.644;2023-02-18T09:40:38;4.05;;;0.60;;
72647;SDS011;60693;50.002;8.644;2023-02-18T09:43:09;4.47;;;0.70;;
72647;SDS011;60693;50.002;8.644;2023-02-18T09:46:02;3.05;;;0.50;;
72647;SDS011;60693;50.002;8.644;2023-02-18T09:48:32;3.65;;;0.57;;
72647;SDS011;60693;50.002;8.644;2023-02-18T09:51:00;4.93;;;0.70;;
72647;SDS011;60693;50.002;8.644;2023-02-18T09:53:25;4.75;;;0.60;;
72647;SDS011;60693;50.002;8.644;2023-02-18T09:55:52;2.97;;;0.37;;
72647;SDS011;60693;50.002;8.644;2023-02-18T09:58:20;2.55;;;0.45;;
72647;SDS011;60693;50.002;8.644;2023-02-18T10:00:50;3.50;;;0.52;;
72647;SDS011;60693;50.002;8.644;2023-02-18T10:03:19;3.75;;;0.50;;
72647;SDS011;60693;50.002;8.644;2023-02-18T10:05:54;4.28;;;0.80;;
72647;SDS011;60693;50.002;8.644;2023-02-18T10:08:45;6.95;;;1.85;;
72647;SDS011;60693;50.002;8.644;2023-02-18T10:11:13;3.45;;;0.77;;
72647;SDS011;60693;50.002;8.644;2023-02-18T10:13:41;2.35;;;0.45;;
72647;SDS011;60693;50.002;8.644;2023-02-18T10:16:08;2.67;;;0.50;;
72647;SDS011;60693;50.002;8.644;2023-02-18T10:18:42;2.55;;;0.43;;
72647;SDS011;60693;50.002;8.644;2023-02-18T10:21:20;3.33;;;0.57;;
72647;SDS011;60693;50.002;8.644;2023-02-18T10:24:03;2.78;;;0.50;;
72647;SDS011;60693;50.002;8.644;2023-02-18T10:26:33;3.00;;;0.50;;
72647;SDS011;60693;50.002;8.644;2023-02-18T10:29:01;3.70;;;0.60;;
72647;SDS011;60693;50.002;8.644;2023-02-18T10:31:28;3.38;;;0.50;;
72647;SDS011;60693;50.002;8.644;2023-02-18T10:34:06;3.05;;;0.43;;
72647;SDS011;60693;50.002;8.644;2023-02-18T10:36:45;3.05;;;0.50;;
72647;SDS011;60693;50.002;8.644;2023-02-18T10:42:07;3.55;;;0.65;;
72647;SDS011;60693;50.002;8.644;2023-02-18T10:44:57;3.45;;;0.70;;
72647;SDS011;60693;50.002;8.644;2023-02-18T10:50:37;2.50;;;0.43;;
72647;SDS011;60693;50.002;8.644;2023-02-18T10:53:18;3.90;;;0.60;;
72647;SDS011;60693;50.002;8.644;2023-02-18T10:55:50;2.58;;;0.50;;
72647;SDS011;60693;50.002;8.644;2023-02-18T10:58:32;4.43;;;0.65;;
72647;SDS011;60693;50.002;8.644;2023-02-18T11:01:12;2.22;;;0.43;;
72647;SDS011;60693;50.002;8.644;2023-02-18T11:06:18;3.00;;;0.40;;
72647;SDS011;60693;50.002;8.644;2023-02-18T11:08:45;2.17;;;0.30;;
72647;SDS011;60693;50.002;8.644;2023-02-18T11:11:44;3.13;;;0.70;;
72647;SDS011;60693;50.002;8.644;2023-02-18T11:14:04;3.45;;;0.50;;
72647;SDS011;60693;50.002;8.644;2023-02-18T11:16:43;4.00;;;0.68;;
72647;SDS011;60693;50.002;8.644;2023-02-18T11:25:02;2.60;;;0.40;;
72647;SDS011;60693;50.002;8.644;2023-02-18T11:29:58;3.97;;;0.60;;
72647;SDS011;60693;50.002;8.644;2023-02-18T11:32:26;3.45;;;0.40;;
72647;SDS011;60693;50.002;8.644;2023-02-18T11:34:53;2.92;;;0.50;;
72647;SDS011;60693;50.002;8.644;2023-02-18T11:37:19;4.15;;;0.70;;
72647;SDS011;60693;50.002;8.644;2023-02-18T11:39:47;7.03;;;1.08;;
72647;SDS011;60693;50.002;8.644;2023-02-18T11:42:15;3.95;;;0.65;;
72647;SDS011;60693;50.002;8.644;2023-02-18T11:44:56;3.28;;;0.57;;
72647;SDS011;60693;50.002;8.644;2023-02-18T11:47:24;3.83;;;0.60;;
72647;SDS011;60693;50.002;8.644;2023-02-18T11:50:13;3.67;;;0.60;;
72647;SDS011;60693;50.002;8.644;2023-02-18T11:52:42;3.80;;;0.60;;
72647;SDS011;60693;50.002;8.644;2023-02-18T11:57:40;4.88;;;0.60;;
72647;SDS011;60693;50.002;8.644;2023-02-18T12:03:14;3.10;;;0.47;;
72647;SDS011;60693;50.002;8.644;2023-02-18T12:05:46;4.32;;;0.50;;
72647;SDS011;60693;50.002;8.644;2023-02-18T12:08:13;2.08;;;0.30;;
72647;SDS011;60693;50.002;8.644;2023-02-18T12:10:49;4.25;;;0.50;;
72647;SDS011;60693;50.002;8.644;2023-02-18T12:13:20;3.50;;;0.70;;
72647;SDS011;60693;50.002;8.644;2023-02-18T12:15:56;4.13;;;0.55;;
72647;SDS011;60693;50.002;8.644;2023-02-18T12:21:17;4.57;;;0.60;;
72647;SDS011;60693;50.002;8.644;2023-02-18T12:24:02;4.63;;;0.90;;
72647;SDS011;60693;50.002;8.644;2023-02-18T12:38:05;3.70;;;0.68;;
72647;SDS011;60693;50.002;8.644;2023-02-18T13:00:33;3.95;;;0.52;;
72647;SDS011;60693;50.002;8.644;2023-02-18T13:06:27;4.15;;;0.60;;
72647;SDS011;60693;50.002;8.644;2023-02-18T13:09:03;3.78;;;0.60;;
72647;SDS011;60693;50.002;8.644;2023-02-18T13:16:35;4.57;;;0.80;;
72647;SDS011;60693;50.002;8.644;2023-02-18T13:21:49;3.03;;;0.50;;
72647;SDS011;60693;50.002;8.644;2023-02-18T13:24:21;4.40;;;0.95;;
72647;SDS011;60693;50.002;8.644;2023-02-18T13:32:38;5.45;;;0.82;;
72647;SDS011;60693;50.002;8.644;2023-02-18T13:35:33;6.28;;;1.30;;
72647;SDS011;60693;50.002;8.644;2023-02-18T13:38:16;6.82;;;1.23;;
72647;SDS011;60693;50.002;8.644;2023-02-18T13:41:00;5.40;;;1.02;;
72647;SDS011;60693;50.002;8.644;2023-02-18T13:46:02;5.70;;;0.90;;
72647;SDS011;60693;50.002;8.644;2023-02-18T13:48:51;5.15;;;0.90;;
72647;SDS011;60693;50.002;8.644;2023-02-18T13:51:31;5.77;;;1.10;;
72647;SDS011;60693;50.002;8.644;2023-02-18T13:54:02;7.28;;;1.20;;
72647;SDS011;60693;50.002;8.644;2023-02-18T13:56:41;5.68;;;0.90;;
72647;SDS011;60693;50.002;8.644;2023-02-18T13:59:09;6.28;;;1.33;;
72647;SDS011;60693;50.002;8.644;2023-02-18T14:01:43;4.35;;;1.00;;
72647;SDS011;60693;50.002;8.644;2023-02-18T14:09:45;4.60;;;0.98;;
72647;SDS011;60693;50.002;8.644;2023-02-18T14:17:43;5.40;;;0.80;;
72647;SDS011;60693;50.002;8.644;2023-02-18T14:25:15;3.97;;;0.65;;
72647;SDS011;60693;50.002;8.644;2023-02-18T14:27:50;6.57;;;0.70;;
72647;SDS011;60693;50.002;8.644;2023-02-18T14:30:18;5.90;;;0.85;;
72647;SDS011;60693;50.002;8.644;2023-02-18T14:32:50;6.07;;;0.80;;
72647;SDS011;60693;50.002;8.644;2023-02-18T14:43:58;5.15;;;0.85;;
72647;SDS011;60693;50.002;8.644;2023-02-18T14:52:04;4.43;;;0.70;;
72647;SDS011;60693;50.002;8.644;2023-02-18T14:54:31;6.72;;;0.98;;
72647;SDS011;60693;50.002;8.644;2023-02-18T14:56:58;6.90;;;1.00;;
72647;SDS011;60693;50.002;8.644;2023-02-18T14:59:27;5.72;;;1.08;;
72647;SDS011;60693;50.002;8.644;2023-02-18T15:01:54;3.63;;;0.82;;
72647;SDS011;60693;50.002;8.644;2023-02-18T15:04:21;4.80;;;0.70;;
72647;SDS011;60693;50.002;8.644;2023-02-18T15:06:56;4.35;;;0.70;;
72647;SDS011;60693;50.002;8.644;2023-02-18T15:09:25;5.07;;;0.90;;
72647;SDS011;60693;50.002;8.644;2023-02-18T15:14:27;4.32;;;0.93;;
72647;SDS011;60693;50.002;8.644;2023-02-18T15:16:54;5.13;;;0.63;;
72647;SDS011;60693;50.002;8.644;2023-02-18T15:19:21;4.68;;;0.70;;
72647;SDS011;60693;50.002;8.644;2023-02-18T15:21:49;5.30;;;0.82;;
72647;SDS011;60693;50.002;8.644;2023-02-18T15:24:26;4.10;;;0.60;;
72647;SDS011;60693;50.002;8.644;2023-02-18T15:26:56;5.68;;;0.70;;
72647;SDS011;60693;50.002;8.644;2023-02-18T15:29:27;4.43;;;0.60;;
72647;SDS011;60693;50.002;8.644;2023-02-18T15:31:55;3.92;;;0.60;;
72647;SDS011;60693;50.002;8.644;2023-02-18T15:36:53;5.97;;;0.70;;
72647;SDS011;60693;50.002;8.644;2023-02-18T15:39:20;9.65;;;1.90;;
72647;SDS011;60693;50.002;8.644;2023-02-18T15:41:46;5.68;;;0.70;;
72647;SDS011;60693;50.002;8.644;2023-02-18T15:44:17;5.78;;;0.70;;
72647;SDS011;60693;50.002;8.644;2023-02-18T15:46:45;5.18;;;0.77;;
72647;SDS011;60693;50.002;8.644;2023-02-18T15:49:11;5.00;;;0.60;;
72647;SDS011;60693;50.002;8.644;2023-02-18T15:51:40;6.53;;;1.60;;
72647;SDS011;60693;50.002;8.644;2023-02-18T15:54:10;2.33;;;0.37;;
72647;SDS011;60693;50.002;8.644;2023-02-18T15:56:41;4.47;;;0.60;;
72647;SDS011;60693;50.002;8.644;2023-02-18T15:59:09;6.95;;;0.80;;
72647;SDS011;60693;50.002;8.644;2023-02-18T16:01:35;3.80;;;0.60;;
72647;SDS011;60693;50.002;8.644;2023-02-18T16:04:00;4.57;;;0.80;;
72647;SDS011;60693;50.002;8.644;2023-02-18T16:06:27;3.97;;;0.77;;
72647;SDS011;60693;50.002;8.644;2023-02-18T16:09:01;5.65;;;0.73;;
72647;SDS011;60693;50.002;8.644;2023-02-18T16:11:33;4.30;;;0.70;;
72647;SDS011;60693;50.002;8.644;2023-02-18T16:14:01;3.67;;;0.68;;
72647;SDS011;60693;50.002;8.644;2023-02-18T16:16:27;4.75;;;0.70;;
72647;SDS011;60693;50.002;8.644;2023-02-18T16:19:00;3.53;;;0.60;;
72647;SDS011;60693;50.002;8.644;2023-02-18T16:21:31;4.70;;;0.88;;
72647;SDS011;60693;50.002;8.644;2023-02-18T16:24:02;3.70;;;0.50;;
72647;SDS011;60693;50.002;8.644;2023-02-18T16:26:49;4.68;;;0.63;;
72647;SDS011;60693;50.002;8.644;2023-02-18T16:29:39;4.60;;;0.90;;
72647;SDS011;60693;50.002;8.644;2023-02-18T16:32:05;3.38;;;0.50;;
72647;SDS011;60693;50.002;8.644;2023-02-18T16:34:31;4.87;;;0.60;;
72647;SDS011;60693;50.002;8.644;2023-02-18T16:36:56;4.03;;;0.50;;
72647;SDS011;60693;50.002;8.644;2023-02-18T16:39:40;5.22;;;1.27;;
72647;SDS011;60693;50.002;8.644;2023-02-18T16:42:10;6.57;;;0.50;;
72647;SDS011;60693;50.002;8.644;2023-02-18T16:44:36;3.72;;;0.63;;
72647;SDS011;60693;50.002;8.644;2023-02-18T16:47:02;4.53;;;0.60;;
72647;SDS011;60693;50.002;8.644;2023-02-18T16:49:27;5.57;;;0.83;;
72647;SDS011;60693;50.002;8.644;2023-02-18T16:51:54;6.20;;;0.70;;
72647;SDS011;60693;50.002;8.644;2023-02-18T16:54:19;2.93;;;0.50;;
72647;SDS011;60693;50.002;8.644;2023-02-18T16:56:45;3.20;;;0.73;;
72647;SDS011;60693;50.002;8.644;2023-02-18T16:59:10;2.97;;;0.60;;
72647;SDS011;60693;50.002;8.644;2023-02-18T17:01:40;5.03;;;0.60;;
72647;SDS011;60693;50.002;8.644;2023-02-18T17:04:12;4.85;;;0.80;;
72647;SDS011;60693;50.002;8.644;2023-02-18T17:06:39;5.53;;;0.80;;
72647;SDS011;60693;50.002;8.644;2023-02-18T17:09:15;5.28;;;0.70;;
72647;SDS011;60693;50.002;8.644;2023-02-18T17:11:45;4.85;;;0.75;;
72647;SDS011;60693;50.002;8.644;2023-02-18T17:14:15;5.03;;;1.07;;
72647;SDS011;60693;50.002;8.644;2023-02-18T17:16:42;4.57;;;0.75;;
72647;SDS011;60693;50.002;8.644;2023-02-18T17:19:11;4.78;;;0.90;;
72647;SDS011;60693;50.002;8.644;2023-02-18T17:21:37;4.72;;;0.70;;
72647;SDS011;60693;50.002;8.644;2023-02-18T17:24:03;3.40;;;0.47;;
72647;SDS011;60693;50.002;8.644;2023-02-18T17:26:29;3.55;;;0.60;;
72647;SDS011;60693;50.002;8.644;2023-02-18T17:28:56;6.83;;;1.07;;
72647;SDS011;60693;50.002;8.644;2023-02-18T17:33:50;16.48;;;6.80;;
72647;SDS011;60693;50.002;8.644;2023-02-18T17:36:17;3.75;;;0.60;;
72647;SDS011;60693;50.002;8.644;2023-02-18T17:38:43;6.03;;;0.70;;
72647;SDS011;60693;50.002;8.644;2023-02-18T17:41:09;8.52;;;1.00;;